Terminal Aerodrome Forecast
Issued by NWS Blacksburg, VA

Home | Current Version | Previous Version | Text Only | Print | Product List | Glossary On
Versions: 1 2 3 4 5 6 7 8 9 10 11 12 13 14 15 16 17 18 19 20 21 22 23 24 25 26 27 28 29 30 31 32
008
FTUS41 KRNK 281744
TAFDAN
TAF
KDAN 281744Z 2818/2918 00000KT P6SM SCT030
     FM282100 22006KT P6SM BKN040
     FM290200 24005KT P6SM VCTS BKN050CB
     FM290500 25003KT P6SM SCT050 BKN080
     FM291000 25003KT 5SM BR SCT020 SCT050
     FM291300 28008KT P6SM BKN040=

USA.gov is the U.S. government's official web portal to all federal, state and local government web resources and services.